Terminal Aerodrome Forecast
Issued by NWS Omaha/Valley, NE

Home | Current Version | Previous Version | Graphics & Text | Print | Product List | Glossary On
Versions: 1 2 3 4 5 6 7 8 9 10 11 12 13 14 15 16 17 18 19 20 21 22 23 24 25 26 27 28 29 30 31 32 33 34 35 36 37 38 39 40 41
000
FTUS43 KOAX 101740
TAFOFK
TAF
KOFK 101740Z 1018/1118 17014G20KT P6SM SCT100
     FM101900 17016G24KT P6SM SCT050 SCT150
     FM110100 15010KT P6SM BKN120 PROB30 1106/1110 5SM TSRA BKN040CB
     FM111200 15008KT P6SM SCT015 OVC050
      TEMPO 1112/1115 4SM BR OVC015=

USA.gov is the U.S. government's official web portal to all federal, state and local government web resources and services.